GXA555 KMKE-KLAN
Flight info
| Callsign | GXA555 |
|---|---|
| Flight time | 0h 26m |
| Altitude | 15000 |
| Route | SQUIB VIO |
| Aircraft | B738/M-SDE2E3FGHIRWXY/LB1 |
Departure
| Time | 2026-04-14 05:08 |
|---|---|
| Airport | General Mitchell International Airport (KMKE) |
Arrival
| Time | 2026-04-14 05:34 |
|---|---|
| Airport | Capital Region International Airport (KLAN) |
| Time | Latitude | Longitude | Altitude | Speed | Heading |
|---|---|---|---|---|---|
| 2026-04-14 04:57 | 42.94203 | -87.91677 | 697 ft | 0 kts | 343° |
| 2026-04-14 04:59 | 42.94202 | -87.91677 | 697 ft | 0 kts | 343° |
| 2026-04-14 05:02 | 42.94200 | -87.91676 | 703 ft | 0 kts | 343° |
| 2026-04-14 05:06 | 42.94197 | -87.91690 | 703 ft | 3 kts | 238° |
| 2026-04-14 05:06 | 42.94181 | -87.91724 | 696 ft | 4 kts | 238° |
| 2026-04-14 05:06 | 42.94144 | -87.91803 | 703 ft | 15 kts | 232° |
| 2026-04-14 05:07 | 42.94044 | -87.91816 | 695 ft | 18 kts | 156° |
| 2026-04-14 05:07 | 42.93934 | -87.91755 | 690 ft | 8 kts | 128° |
| 2026-04-14 05:07 | 42.93968 | -87.91532 | 690 ft | 64 kts | 72° |
| 2026-04-14 05:07 | 42.94208 | -87.90559 | 680 ft | 150 kts | 71° |
| 2026-04-14 05:08 | 42.94595 | -87.88936 | 954 ft | 197 kts | 77° |
| 2026-04-14 05:08 | 42.94975 | -87.87044 | 1822 ft | 215 kts | 85° |
| 2026-04-14 05:08 | 42.95242 | -87.84976 | 2550 ft | 230 kts | 102° |
| 2026-04-14 05:08 | 42.95061 | -87.82781 | 3263 ft | 240 kts | 110° |
| 2026-04-14 05:09 | 42.94867 | -87.80375 | 3538 ft | 270 kts | 105° |
| 2026-04-14 05:09 | 42.94696 | -87.77679 | 3759 ft | 300 kts | 103° |
| 2026-04-14 05:09 | 42.94592 | -87.75743 | 4065 ft | 314 kts | 102° |
| 2026-04-14 05:09 | 42.94456 | -87.72735 | 4866 ft | 321 kts | 101° |
| 2026-04-14 05:10 | 42.94340 | -87.69697 | 5878 ft | 318 kts | 98° |
| 2026-04-14 05:10 | 42.94236 | -87.66713 | 6907 ft | 314 kts | 98° |
| 2026-04-14 05:10 | 42.94130 | -87.63708 | 7688 ft | 320 kts | 97° |
| 2026-04-14 05:10 | 42.94022 | -87.60664 | 8567 ft | 321 kts | 97° |
| 2026-04-14 05:11 | 42.93915 | -87.57611 | 9445 ft | 323 kts | 96° |
| 2026-04-14 05:11 | 42.93806 | -87.54537 | 10270 ft | 326 kts | 96° |
| 2026-04-14 05:11 | 42.93690 | -87.51366 | 10646 ft | 346 kts | 96° |
| 2026-04-14 05:11 | 42.93563 | -87.47960 | 10839 ft | 371 kts | 95° |
| 2026-04-14 05:12 | 42.93429 | -87.44341 | 11020 ft | 394 kts | 95° |
| 2026-04-14 05:12 | 42.93288 | -87.40516 | 11280 ft | 411 kts | 95° |
| 2026-04-14 05:12 | 42.93145 | -87.36581 | 11843 ft | 418 kts | 95° |
| 2026-04-14 05:12 | 42.93000 | -87.32613 | 12548 ft | 420 kts | 95° |
| 2026-04-14 05:13 | 42.92852 | -87.28616 | 13246 ft | 423 kts | 95° |
| 2026-04-14 05:13 | 42.92700 | -87.24589 | 13888 ft | 427 kts | 95° |
| 2026-04-14 05:13 | 42.92544 | -87.20529 | 14480 ft | 431 kts | 95° |
| 2026-04-14 05:13 | 42.92386 | -87.16431 | 14992 ft | 435 kts | 95° |
| 2026-04-14 05:14 | 42.92225 | -87.12293 | 15033 ft | 436 kts | 95° |
| 2026-04-14 05:14 | 42.92063 | -87.08170 | 15044 ft | 435 kts | 95° |
| 2026-04-14 05:14 | 42.91877 | -87.04051 | 15048 ft | 435 kts | 97° |
| 2026-04-14 05:14 | 42.91590 | -86.99951 | 15054 ft | 435 kts | 98° |
| 2026-04-14 05:15 | 42.91251 | -86.95853 | 15056 ft | 435 kts | 99° |
| 2026-04-14 05:15 | 42.90895 | -86.91746 | 15058 ft | 436 kts | 99° |
| 2026-04-14 05:15 | 42.90542 | -86.87647 | 15069 ft | 436 kts | 99° |
| 2026-04-14 05:15 | 42.90195 | -86.83533 | 15064 ft | 436 kts | 99° |
| 2026-04-14 05:16 | 42.89855 | -86.79422 | 15069 ft | 436 kts | 98° |
| 2026-04-14 05:16 | 42.89519 | -86.75310 | 15069 ft | 436 kts | 98° |
| 2026-04-14 05:16 | 42.89186 | -86.71202 | 15067 ft | 436 kts | 98° |
| 2026-04-14 05:16 | 42.88863 | -86.67089 | 15067 ft | 436 kts | 97° |
| 2026-04-14 05:17 | 42.88615 | -86.62969 | 15081 ft | 436 kts | 96° |
| 2026-04-14 05:17 | 42.88411 | -86.58844 | 15082 ft | 436 kts | 96° |
| 2026-04-14 05:17 | 42.88218 | -86.54718 | 15077 ft | 436 kts | 96° |
| 2026-04-14 05:17 | 42.88022 | -86.50587 | 15081 ft | 437 kts | 96° |
| 2026-04-14 05:18 | 42.87818 | -86.46444 | 15065 ft | 439 kts | 96° |
| 2026-04-14 05:18 | 42.87607 | -86.42344 | 14818 ft | 438 kts | 96° |
| 2026-04-14 05:18 | 42.87390 | -86.38222 | 14576 ft | 435 kts | 96° |
| 2026-04-14 05:18 | 42.87169 | -86.34121 | 14342 ft | 433 kts | 96° |
| 2026-04-14 05:19 | 42.86945 | -86.30025 | 14105 ft | 432 kts | 96° |
| 2026-04-14 05:19 | 42.86719 | -86.25949 | 13872 ft | 431 kts | 96° |
| 2026-04-14 05:19 | 42.86493 | -86.21878 | 13635 ft | 431 kts | 96° |
| 2026-04-14 05:19 | 42.86265 | -86.17815 | 13378 ft | 430 kts | 96° |
| 2026-04-14 05:20 | 42.86037 | -86.13754 | 13116 ft | 429 kts | 96° |
| 2026-04-14 05:20 | 42.85807 | -86.09700 | 12857 ft | 429 kts | 96° |
| 2026-04-14 05:20 | 42.85577 | -86.05655 | 12602 ft | 428 kts | 96° |
| 2026-04-14 05:20 | 42.85345 | -86.01613 | 12348 ft | 427 kts | 97° |
| 2026-04-14 05:21 | 42.85113 | -85.97585 | 12094 ft | 426 kts | 97° |
| 2026-04-14 05:21 | 42.84880 | -85.93563 | 11724 ft | 425 kts | 97° |
| 2026-04-14 05:21 | 42.84649 | -85.89585 | 11356 ft | 417 kts | 97° |
| 2026-04-14 05:21 | 42.84420 | -85.85669 | 10878 ft | 412 kts | 97° |
| 2026-04-14 05:22 | 42.84192 | -85.81795 | 10371 ft | 408 kts | 97° |
| 2026-04-14 05:22 | 42.83969 | -85.78016 | 10167 ft | 389 kts | 97° |
| 2026-04-14 05:22 | 42.83760 | -85.74452 | 10089 ft | 367 kts | 98° |
| 2026-04-14 05:22 | 42.83562 | -85.71088 | 10073 ft | 346 kts | 98° |
| 2026-04-14 05:23 | 42.83371 | -85.67894 | 9997 ft | 334 kts | 98° |
| 2026-04-14 05:23 | 42.83179 | -85.64754 | 9755 ft | 331 kts | 98° |
| 2026-04-14 05:23 | 42.82986 | -85.61635 | 9507 ft | 329 kts | 99° |
| 2026-04-14 05:23 | 42.82794 | -85.58532 | 9260 ft | 329 kts | 99° |
| 2026-04-14 05:24 | 42.82601 | -85.55431 | 9009 ft | 328 kts | 99° |
| 2026-04-14 05:24 | 42.82408 | -85.52331 | 8761 ft | 328 kts | 99° |
| 2026-04-14 05:24 | 42.82214 | -85.49223 | 8526 ft | 331 kts | 99° |
| 2026-04-14 05:24 | 42.82018 | -85.46097 | 8289 ft | 334 kts | 99° |
| 2026-04-14 05:25 | 42.81822 | -85.42956 | 8037 ft | 331 kts | 99° |
| 2026-04-14 05:25 | 42.81629 | -85.39853 | 7784 ft | 327 kts | 99° |
| 2026-04-14 05:25 | 42.81436 | -85.36782 | 7541 ft | 324 kts | 100° |
| 2026-04-14 05:25 | 42.81246 | -85.33757 | 7330 ft | 317 kts | 100° |
| 2026-04-14 05:26 | 42.81059 | -85.30795 | 7141 ft | 309 kts | 100° |
| 2026-04-14 05:26 | 42.80877 | -85.27920 | 6945 ft | 302 kts | 101° |
| 2026-04-14 05:26 | 42.80694 | -85.25068 | 6646 ft | 302 kts | 101° |
| 2026-04-14 05:26 | 42.80511 | -85.22241 | 6402 ft | 299 kts | 101° |
| 2026-04-14 05:27 | 42.80327 | -85.19418 | 6135 ft | 300 kts | 101° |
| 2026-04-14 05:27 | 42.80140 | -85.16572 | 5859 ft | 302 kts | 101° |
| 2026-04-14 05:27 | 42.79956 | -85.13745 | 5541 ft | 297 kts | 101° |
| 2026-04-14 05:27 | 42.79777 | -85.10970 | 5184 ft | 291 kts | 102° |
| 2026-04-14 05:28 | 42.79665 | -85.09240 | 4932 ft | 288 kts | 102° |
| 2026-04-14 05:28 | 42.79558 | -85.07606 | 4709 ft | 284 kts | 103° |
| 2026-04-14 05:28 | 42.79387 | -85.04976 | 4471 ft | 277 kts | 103° |
| 2026-04-14 05:28 | 42.79215 | -85.02380 | 4210 ft | 274 kts | 104° |
| 2026-04-14 05:29 | 42.79041 | -84.99794 | 3965 ft | 274 kts | 104° |
| 2026-04-14 05:29 | 42.78870 | -84.97247 | 3722 ft | 272 kts | 104° |
| 2026-04-14 05:29 | 42.78703 | -84.94721 | 3465 ft | 264 kts | 105° |
| 2026-04-14 05:29 | 42.78545 | -84.92296 | 3346 ft | 251 kts | 105° |
| 2026-04-14 05:30 | 42.78380 | -84.89975 | 3219 ft | 242 kts | 108° |
| 2026-04-14 05:30 | 42.78167 | -84.87703 | 3110 ft | 245 kts | 107° |
| 2026-04-14 05:30 | 42.78053 | -84.85349 | 3099 ft | 253 kts | 102° |
| 2026-04-14 05:30 | 42.78021 | -84.82964 | 3052 ft | 250 kts | 100° |
| 2026-04-14 05:31 | 42.78012 | -84.80651 | 3043 ft | 239 kts | 102° |
| 2026-04-14 05:31 | 42.77987 | -84.78383 | 3047 ft | 241 kts | 102° |
| 2026-04-14 05:31 | 42.77965 | -84.76139 | 3020 ft | 230 kts | 103° |
| 2026-04-14 05:31 | 42.77949 | -84.74064 | 2886 ft | 209 kts | 104° |
| 2026-04-14 05:32 | 42.77929 | -84.72145 | 2608 ft | 195 kts | 104° |
| 2026-04-14 05:32 | 42.77909 | -84.70378 | 2367 ft | 182 kts | 105° |
| 2026-04-14 05:32 | 42.77896 | -84.68695 | 2153 ft | 173 kts | 104° |
| 2026-04-14 05:32 | 42.77884 | -84.67099 | 1930 ft | 163 kts | 103° |
| 2026-04-14 05:33 | 42.77863 | -84.65571 | 1711 ft | 160 kts | 99° |
| 2026-04-14 05:33 | 42.77852 | -84.64089 | 1481 ft | 153 kts | 96° |
| 2026-04-14 05:33 | 42.77835 | -84.62638 | 1278 ft | 150 kts | 95° |
| 2026-04-14 05:34 | 42.77824 | -84.59848 | 870 ft | 143 kts | 95° |
| 2026-04-14 05:34 | 42.77806 | -84.58621 | 854 ft | 114 kts | 91° |
| 2026-04-14 05:34 | 42.77803 | -84.57939 | 854 ft | 39 kts | 91° |
| 2026-04-14 05:34 | 42.77792 | -84.57719 | 849 ft | 15 kts | 125° |
| 2026-04-14 05:35 | 42.77696 | -84.57706 | 854 ft | 14 kts | 207° |
| 2026-04-14 05:35 | 42.77681 | -84.57829 | 852 ft | 14 kts | 277° |
| 2026-04-14 05:35 | 42.77685 | -84.57956 | 856 ft | 13 kts | 269° |
| 2026-04-14 05:35 | 42.77685 | -84.58086 | 848 ft | 14 kts | 274° |
| 2026-04-14 05:36 | 42.77686 | -84.58222 | 852 ft | 16 kts | 270° |
| 2026-04-14 05:36 | 42.77686 | -84.58387 | 848 ft | 18 kts | 270° |
| 2026-04-14 05:36 | 42.77687 | -84.58548 | 851 ft | 13 kts | 270° |
| 2026-04-14 05:36 | 42.77671 | -84.58618 | 844 ft | 9 kts | 214° |
| 2026-04-14 05:37 | 42.77589 | -84.58615 | 852 ft | 13 kts | 194° |
| 2026-04-14 05:37 | 42.77540 | -84.58680 | 852 ft | 5 kts | 245° |
| 2026-04-14 05:37 | 42.77537 | -84.58689 | 856 ft | 0 kts | 245° |
| 2026-04-14 05:38 | 42.77536 | -84.58693 | 854 ft | 4 kts | 245° |
| 2026-04-14 05:38 | 42.77546 | -84.58744 | 850 ft | 6 kts | 306° |
| 2026-04-14 05:38 | 42.77548 | -84.58748 | 851 ft | 0 kts | 305° |